sensor_id;sensor_type;location;lat;lon;timestamp;pressure;altitude;pressure_sealevel;temperature;humidity
23059;BME280;30585;51.502;7.218;2022-07-29T00:00:40;154642.28;;;17.68;58.42
23059;BME280;30585;51.502;7.218;2022-07-29T00:03:10;154630.59;;;17.64;58.05
23059;BME280;30585;51.502;7.218;2022-07-29T00:05:39;154620.25;;;17.59;58.19
23059;BME280;30585;51.502;7.218;2022-07-29T00:08:07;154611.09;;;17.56;58.61
23059;BME280;30585;51.502;7.218;2022-07-29T00:10:38;154586.47;;;17.46;58.76
23059;BME280;30585;51.502;7.218;2022-07-29T00:13:06;154612.44;;;17.56;58.94
23059;BME280;30585;51.502;7.218;2022-07-29T00:15:34;154599.41;;;17.51;58.99
23059;BME280;30585;51.502;7.218;2022-07-29T00:18:03;154600.75;;;17.52;59.97
23059;BME280;30585;51.502;7.218;2022-07-29T00:20:31;154578.66;;;17.43;61.31
23059;BME280;30585;51.502;7.218;2022-07-29T00:22:59;154566.97;;;17.38;60.70
23059;BME280;30585;51.502;7.218;2022-07-29T00:25:27;154550.06;;;17.32;60.17
23059;BME280;30585;51.502;7.218;2022-07-29T00:27:56;154557.88;;;17.35;60.05
23059;BME280;30585;51.502;7.218;2022-07-29T00:30:24;154544.94;;;17.29;61.91
23059;BME280;30585;51.502;7.218;2022-07-29T00:32:52;154555.28;;;17.34;60.39
23059;BME280;30585;51.502;7.218;2022-07-29T00:35:21;154529.31;;;17.23;63.69
23059;BME280;30585;51.502;7.218;2022-07-29T00:38:06;154547.53;;;17.31;62.09
23059;BME280;30585;51.502;7.218;2022-07-29T00:40:34;154533.25;;;17.25;63.99
23059;BME280;30585;51.502;7.218;2022-07-29T00:43:05;154550.06;;;17.32;63.35
23059;BME280;30585;51.502;7.218;2022-07-29T00:45:33;154533.25;;;17.25;63.20
23059;BME280;30585;51.502;7.218;2022-07-29T00:48:02;154507.28;;;17.15;61.66
23059;BME280;30585;51.502;7.218;2022-07-29T00:50:32;154516.34;;;17.18;62.44
23059;BME280;30585;51.502;7.218;2022-07-29T00:53:02;154504.69;;;17.13;62.98
23059;BME280;30585;51.502;7.218;2022-07-29T00:55:30;154491.66;;;17.08;62.24
23059;BME280;30585;51.502;7.218;2022-07-29T00:57:58;154509.88;;;17.16;61.67
23059;BME280;30585;51.502;7.218;2022-07-29T01:00:28;154503.34;;;17.13;60.30
23059;BME280;30585;51.502;7.218;2022-07-29T01:02:56;154503.34;;;17.13;61.24
23059;BME280;30585;51.502;7.218;2022-07-29T01:05:27;154500.81;;;17.12;60.12
23059;BME280;30585;51.502;7.218;2022-07-29T01:08:17;154517.63;;;17.19;60.05
23059;BME280;30585;51.502;7.218;2022-07-29T01:10:46;154517.63;;;17.19;60.40
23059;BME280;30585;51.502;7.218;2022-07-29T01:13:15;154524.16;;;17.21;59.67
23059;BME280;30585;51.502;7.218;2022-07-29T01:15:46;154461.81;;;16.96;62.99
23059;BME280;30585;51.502;7.218;2022-07-29T01:18:18;154395.56;;;16.70;62.44
23059;BME280;30585;51.502;7.218;2022-07-29T01:21:07;154435.81;;;16.86;63.75
23059;BME280;30585;51.502;7.218;2022-07-29T01:23:56;154431.94;;;16.85;64.27
23059;BME280;30585;51.502;7.218;2022-07-29T01:26:41;154402.09;;;16.73;63.05
23059;BME280;30585;51.502;7.218;2022-07-29T01:29:22;154421.53;;;16.80;61.50
23059;BME280;30585;51.502;7.218;2022-07-29T01:32:07;154422.84;;;16.81;61.73
23059;BME280;30585;51.502;7.218;2022-07-29T01:34:57;154425.47;;;16.82;63.81
23059;BME280;30585;51.502;7.218;2022-07-29T01:37:29;154408.56;;;16.75;61.97
23059;BME280;30585;51.502;7.218;2022-07-29T01:40:02;154396.91;;;16.71;62.33
23059;BME280;30585;51.502;7.218;2022-07-29T01:42:34;154383.91;;;16.65;64.46
23059;BME280;30585;51.502;7.218;2022-07-29T01:45:10;154376.13;;;16.62;65.19
23059;BME280;30585;51.502;7.218;2022-07-29T01:47:41;154387.81;;;16.67;64.64
23059;BME280;30585;51.502;7.218;2022-07-29T01:50:14;154324.22;;;16.42;64.26
23059;BME280;30585;51.502;7.218;2022-07-29T01:52:47;154357.94;;;16.55;66.48
23059;BME280;30585;51.502;7.218;2022-07-29T01:55:20;154321.63;;;16.41;64.94
23059;BME280;30585;51.502;7.218;2022-07-29T01:57:49;154298.28;;;16.31;69.33
23059;BME280;30585;51.502;7.218;2022-07-29T02:00:20;154317.75;;;16.39;70.03
23059;BME280;30585;51.502;7.218;2022-07-29T02:02:48;154296.94;;;16.31;66.09
23059;BME280;30585;51.502;7.218;2022-07-29T02:05:18;154302.16;;;16.33;67.35
23059;BME280;30585;51.502;7.218;2022-07-29T02:07:48;154285.28;;;16.26;66.83
23059;BME280;30585;51.502;7.218;2022-07-29T02:10:20;154315.16;;;16.38;66.98
23059;BME280;30585;51.502;7.218;2022-07-29T02:12:54;154265.84;;;16.18;65.80
23059;BME280;30585;51.502;7.218;2022-07-29T02:15:25;154256.78;;;16.15;70.15
23059;BME280;30585;51.502;7.218;2022-07-29T02:17:58;154261.91;;;16.17;68.04
23059;BME280;30585;51.502;7.218;2022-07-29T02:20:27;154246.38;;;16.11;69.10
23059;BME280;30585;51.502;7.218;2022-07-29T02:22:58;154234.69;;;16.06;72.11
23059;BME280;30585;51.502;7.218;2022-07-29T02:25:27;154185.41;;;15.86;70.92
23059;BME280;30585;51.502;7.218;2022-07-29T02:28:05;154186.72;;;15.87;71.87
23059;BME280;30585;51.502;7.218;2022-07-29T02:30:36;154177.56;;;15.83;74.62
23059;BME280;30585;51.502;7.218;2022-07-29T02:33:07;154156.81;;;15.75;74.31
23059;BME280;30585;51.502;7.218;2022-07-29T02:35:37;154099.78;;;15.52;72.07
23059;BME280;30585;51.502;7.218;2022-07-29T02:38:07;154172.41;;;15.81;68.58
23059;BME280;30585;51.502;7.218;2022-07-29T02:40:55;154142.53;;;15.69;68.88
23059;BME280;30585;51.502;7.218;2022-07-29T02:43:24;154190.59;;;15.88;68.75
23059;BME280;30585;51.502;7.218;2022-07-29T02:45:54;154180.19;;;15.84;67.75
23059;BME280;30585;51.502;7.218;2022-07-29T02:48:32;154199.69;;;15.92;68.90
23059;BME280;30585;51.502;7.218;2022-07-29T02:51:08;154181.53;;;15.85;70.56
23059;BME280;30585;51.502;7.218;2022-07-29T02:54:01;154168.47;;;15.80;73.05
23059;BME280;30585;51.502;7.218;2022-07-29T02:56:34;154137.38;;;15.67;73.59
23059;BME280;30585;51.502;7.218;2022-07-29T02:59:06;154169.81;;;15.80;75.91
23059;BME280;30585;51.502;7.218;2022-07-29T03:01:40;154149.06;;;15.72;76.65
23059;BME280;30585;51.502;7.218;2022-07-29T03:04:11;154103.66;;;15.54;75.33
23059;BME280;30585;51.502;7.218;2022-07-29T03:06:43;154091.97;;;15.49;74.47
23059;BME280;30585;51.502;7.218;2022-07-29T03:09:13;154095.84;;;15.51;77.15
23059;BME280;30585;51.502;7.218;2022-07-29T03:11:42;154055.66;;;15.35;77.34
23059;BME280;30585;51.502;7.218;2022-07-29T03:14:17;154054.38;;;15.34;77.44
23059;BME280;30585;51.502;7.218;2022-07-29T03:16:49;154055.66;;;15.35;76.47
23059;BME280;30585;51.502;7.218;2022-07-29T03:19:17;154056.97;;;15.35;75.52
23059;BME280;30585;51.502;7.218;2022-07-29T03:21:46;154043.97;;;15.30;75.70
23059;BME280;30585;51.502;7.218;2022-07-29T03:24:25;154049.19;;;15.32;73.98
23059;BME280;30585;51.502;7.218;2022-07-29T03:26:54;154079.00;;;15.44;71.69
23059;BME280;30585;51.502;7.218;2022-07-29T03:29:23;154071.25;;;15.41;74.38
23059;BME280;30585;51.502;7.218;2022-07-29T03:32:01;154107.53;;;15.55;72.47
23059;BME280;30585;51.502;7.218;2022-07-29T03:34:32;154082.91;;;15.46;72.82
23059;BME280;30585;51.502;7.218;2022-07-29T03:37:00;154101.06;;;15.53;73.10
23059;BME280;30585;51.502;7.218;2022-07-29T03:39:32;154116.59;;;15.59;74.73
23059;BME280;30585;51.502;7.218;2022-07-29T03:42:00;154133.47;;;15.66;77.02
23059;BME280;30585;51.502;7.218;2022-07-29T03:44:31;154108.84;;;15.56;74.01
23059;BME280;30585;51.502;7.218;2022-07-29T03:47:01;154124.41;;;15.62;74.73
23059;BME280;30585;51.502;7.218;2022-07-29T03:49:32;154142.53;;;15.69;72.29
23059;BME280;30585;51.502;7.218;2022-07-29T03:52:04;154176.28;;;15.83;71.48
23059;BME280;30585;51.502;7.218;2022-07-29T03:54:33;154133.47;;;15.66;71.47
23059;BME280;30585;51.502;7.218;2022-07-29T03:57:01;154134.78;;;15.66;71.69
23059;BME280;30585;51.502;7.218;2022-07-29T03:59:32;154177.56;;;15.83;69.98
23059;BME280;30585;51.502;7.218;2022-07-29T04:02:02;154162.00;;;15.77;71.32
23059;BME280;30585;51.502;7.218;2022-07-29T04:04:32;154186.72;;;15.87;72.42
23059;BME280;30585;51.502;7.218;2022-07-29T04:07:00;154152.94;;;15.73;70.63
23059;BME280;30585;51.502;7.218;2022-07-29T04:09:29;154173.69;;;15.82;70.82
23059;BME280;30585;51.502;7.218;2022-07-29T04:11:57;154171.09;;;15.81;70.32
23059;BME280;30585;51.502;7.218;2022-07-29T04:14:30;154186.72;;;15.87;71.55
23059;BME280;30585;51.502;7.218;2022-07-29T04:16:58;154164.59;;;15.78;70.98
23059;BME280;30585;51.502;7.218;2022-07-29T04:19:27;154158.13;;;15.76;75.33
23059;BME280;30585;51.502;7.218;2022-07-29T04:21:57;154156.81;;;15.75;70.98
23059;BME280;30585;51.502;7.218;2022-07-29T04:24:25;154186.72;;;15.87;72.11
23059;BME280;30585;51.502;7.218;2022-07-29T04:26:53;154191.88;;;15.89;70.49
23059;BME280;30585;51.502;7.218;2022-07-29T04:29:21;154184.13;;;15.86;71.90
23059;BME280;30585;51.502;7.218;2022-07-29T04:31:49;154160.72;;;15.77;70.74
23059;BME280;30585;51.502;7.218;2022-07-29T04:34:17;154178.94;;;15.84;72.45
23059;BME280;30585;51.502;7.218;2022-07-29T04:36:47;154138.66;;;15.68;73.22
23059;BME280;30585;51.502;7.218;2022-07-29T04:39:15;154125.72;;;15.63;74.58
23059;BME280;30585;51.502;7.218;2022-07-29T04:41:48;154156.81;;;15.75;77.96
23059;BME280;30585;51.502;7.218;2022-07-29T04:44:20;154159.41;;;15.76;78.33
23059;BME280;30585;51.502;7.218;2022-07-29T04:46:54;154112.72;;;15.57;77.99
23059;BME280;30585;51.502;7.218;2022-07-29T04:49:22;154103.66;;;15.54;80.26
23059;BME280;30585;51.502;7.218;2022-07-29T04:51:51;154095.84;;;15.51;80.22
23059;BME280;30585;51.502;7.218;2022-07-29T04:54:19;154077.72;;;15.43;79.87
23059;BME280;30585;51.502;7.218;2022-07-29T04:56:47;154051.78;;;15.33;80.69
23059;BME280;30585;51.502;7.218;2022-07-29T04:59:15;154055.66;;;15.35;81.17
23059;BME280;30585;51.502;7.218;2022-07-29T05:01:43;154085.50;;;15.47;81.57
23059;BME280;30585;51.502;7.218;2022-07-29T05:04:11;154099.78;;;15.52;81.41
23059;BME280;30585;51.502;7.218;2022-07-29T05:06:39;154077.72;;;15.43;84.61
23059;BME280;30585;51.502;7.218;2022-07-29T05:09:09;154049.19;;;15.32;83.19
23059;BME280;30585;51.502;7.218;2022-07-29T05:11:36;154058.25;;;15.36;84.41
23059;BME280;30585;51.502;7.218;2022-07-29T05:14:04;154010.31;;;15.17;85.87
23059;BME280;30585;51.502;7.218;2022-07-29T05:16:33;154056.97;;;15.35;86.10
23059;BME280;30585;51.502;7.218;2022-07-29T05:19:00;154051.78;;;15.33;85.73
23059;BME280;30585;51.502;7.218;2022-07-29T05:21:28;154007.69;;;15.16;84.76
23059;BME280;30585;51.502;7.218;2022-07-29T05:23:56;154025.84;;;15.23;85.02
23059;BME280;30585;51.502;7.218;2022-07-29T05:26:26;154037.50;;;15.27;84.98
23059;BME280;30585;51.502;7.218;2022-07-29T05:28:54;154062.16;;;15.37;85.16
23059;BME280;30585;51.502;7.218;2022-07-29T05:31:22;154077.72;;;15.43;85.72
23059;BME280;30585;51.502;7.218;2022-07-29T05:33:50;154076.44;;;15.43;85.18
23059;BME280;30585;51.502;7.218;2022-07-29T05:36:18;154069.91;;;15.40;85.94
23059;BME280;30585;51.502;7.218;2022-07-29T05:38:46;154080.31;;;15.45;85.91
23059;BME280;30585;51.502;7.218;2022-07-29T05:41:14;154088.09;;;15.48;85.42
23059;BME280;30585;51.502;7.218;2022-07-29T05:43:46;154075.13;;;15.42;84.41
23059;BME280;30585;51.502;7.218;2022-07-29T05:46:14;154069.91;;;15.40;84.86
23059;BME280;30585;51.502;7.218;2022-07-29T05:48:42;154085.50;;;15.47;83.09
23059;BME280;30585;51.502;7.218;2022-07-29T05:51:11;154120.53;;;15.61;85.27
23059;BME280;30585;51.502;7.218;2022-07-29T05:53:39;154110.13;;;15.56;83.91
23059;BME280;30585;51.502;7.218;2022-07-29T05:56:07;154129.59;;;15.64;83.59
23059;BME280;30585;51.502;7.218;2022-07-29T05:58:34;154108.84;;;15.56;83.88
23059;BME280;30585;51.502;7.218;2022-07-29T06:01:04;154119.19;;;15.60;84.87
23059;BME280;30585;51.502;7.218;2022-07-29T06:03:32;154120.53;;;15.61;83.39
23059;BME280;30585;51.502;7.218;2022-07-29T06:06:01;154124.41;;;15.62;84.59
23059;BME280;30585;51.502;7.218;2022-07-29T06:08:29;154119.19;;;15.60;85.05
23059;BME280;30585;51.502;7.218;2022-07-29T06:10:56;154098.44;;;15.52;84.15
23059;BME280;30585;51.502;7.218;2022-07-29T06:13:24;154125.72;;;15.63;84.72
23059;BME280;30585;51.502;7.218;2022-07-29T06:15:52;154106.25;;;15.55;85.91
23059;BME280;30585;51.502;7.218;2022-07-29T06:18:22;154114.06;;;15.58;85.80
23059;BME280;30585;51.502;7.218;2022-07-29T06:20:50;154152.94;;;15.73;85.20
23059;BME280;30585;51.502;7.218;2022-07-29T06:23:18;154119.19;;;15.60;84.77
23059;BME280;30585;51.502;7.218;2022-07-29T06:25:47;154095.84;;;15.51;84.88
23059;BME280;30585;51.502;7.218;2022-07-29T06:28:14;154159.41;;;15.76;85.05
23059;BME280;30585;51.502;7.218;2022-07-29T06:30:42;154238.56;;;16.08;83.44
23059;BME280;30585;51.502;7.218;2022-07-29T06:33:16;154269.72;;;16.20;83.16
23059;BME280;30585;51.502;7.218;2022-07-29T06:35:45;154272.31;;;16.21;81.92
23059;BME280;30585;51.502;7.218;2022-07-29T06:38:20;154239.91;;;16.08;82.46
23059;BME280;30585;51.502;7.218;2022-07-29T06:41:00;154267.13;;;16.19;81.29
23059;BME280;30585;51.502;7.218;2022-07-29T06:43:30;154277.53;;;16.23;81.79
23059;BME280;30585;51.502;7.218;2022-07-29T06:46:01;154282.72;;;16.25;80.63
23059;BME280;30585;51.502;7.218;2022-07-29T06:48:30;154319.03;;;16.40;80.16
23059;BME280;30585;51.502;7.218;2022-07-29T06:51:00;154331.97;;;16.45;79.16
23059;BME280;30585;51.502;7.218;2022-07-29T06:53:28;154356.66;;;16.55;78.22
23059;BME280;30585;51.502;7.218;2022-07-29T06:55:57;154374.81;;;16.62;78.09
23059;BME280;30585;51.502;7.218;2022-07-29T06:58:26;154376.13;;;16.62;77.68
23059;BME280;30585;51.502;7.218;2022-07-29T07:00:54;154357.94;;;16.55;79.00
23059;BME280;30585;51.502;7.218;2022-07-29T07:03:22;154308.63;;;16.35;79.31
23059;BME280;30585;51.502;7.218;2022-07-29T07:05:52;154360.53;;;16.56;78.13
23059;BME280;30585;51.502;7.218;2022-07-29T07:08:22;154399.50;;;16.72;77.78
23059;BME280;30585;51.502;7.218;2022-07-29T07:10:50;154447.50;;;16.91;77.42
23059;BME280;30585;51.502;7.218;2022-07-29T07:13:18;154487.78;;;17.07;77.20
23059;BME280;30585;51.502;7.218;2022-07-29T07:15:46;154508.56;;;17.15;77.35
23059;BME280;30585;51.502;7.218;2022-07-29T07:18:15;154513.75;;;17.17;74.59
23059;BME280;30585;51.502;7.218;2022-07-29T07:20:44;154581.25;;;17.44;74.75
23059;BME280;30585;51.502;7.218;2022-07-29T07:23:12;154617.63;;;17.58;76.65
23059;BME280;30585;51.502;7.218;2022-07-29T07:25:41;154611.09;;;17.56;75.42
23059;BME280;30585;51.502;7.218;2022-07-29T07:28:10;154643.63;;;17.69;75.65
23059;BME280;30585;51.502;7.218;2022-07-29T07:30:39;154655.31;;;17.73;74.49
23059;BME280;30585;51.502;7.218;2022-07-29T07:33:07;154685.16;;;17.85;73.17
23059;BME280;30585;51.502;7.218;2022-07-29T07:35:36;154752.72;;;18.12;75.21
23059;BME280;30585;51.502;7.218;2022-07-29T07:38:06;154737.16;;;18.06;70.85
23059;BME280;30585;51.502;7.218;2022-07-29T07:40:34;154661.78;;;17.76;72.53
23059;BME280;30585;51.502;7.218;2022-07-29T07:43:04;154708.53;;;17.95;73.74
23059;BME280;30585;51.502;7.218;2022-07-29T07:45:32;154768.31;;;18.18;72.67
23059;BME280;30585;51.502;7.218;2022-07-29T07:48:00;154768.31;;;18.18;72.15
23059;BME280;30585;51.502;7.218;2022-07-29T07:50:28;154781.31;;;18.24;73.13
23059;BME280;30585;51.502;7.218;2022-07-29T07:52:56;154803.38;;;18.32;72.19
23059;BME280;30585;51.502;7.218;2022-07-29T07:55:25;154789.13;;;18.27;69.71
23059;BME280;30585;51.502;7.218;2022-07-29T07:57:54;154804.69;;;18.33;71.05
23059;BME280;30585;51.502;7.218;2022-07-29T08:00:24;154829.34;;;18.43;70.52
23059;BME280;30585;51.502;7.218;2022-07-29T08:02:52;154841.06;;;18.47;71.94
23059;BME280;30585;51.502;7.218;2022-07-29T08:05:20;154821.59;;;18.40;71.49
23059;BME280;30585;51.502;7.218;2022-07-29T08:07:48;154830.69;;;18.43;71.51
23059;BME280;30585;51.502;7.218;2022-07-29T08:10:18;154841.06;;;18.47;70.57
23059;BME280;30585;51.502;7.218;2022-07-29T08:13:07;154841.06;;;18.47;71.33
23059;BME280;30585;51.502;7.218;2022-07-29T08:15:38;154728.06;;;18.02;74.74
23059;BME280;30585;51.502;7.218;2022-07-29T08:18:07;154717.66;;;17.98;72.70
23059;BME280;30585;51.502;7.218;2022-07-29T08:20:36;154786.53;;;18.26;73.57
23059;BME280;30585;51.502;7.218;2022-07-29T08:23:07;154807.31;;;18.34;74.05
23059;BME280;30585;51.502;7.218;2022-07-29T08:25:36;154887.81;;;18.66;71.39
23059;BME280;30585;51.502;7.218;2022-07-29T08:28:05;154893.03;;;18.68;73.33
23059;BME280;30585;51.502;7.218;2022-07-29T08:30:33;154891.75;;;18.67;72.84
23059;BME280;30585;51.502;7.218;2022-07-29T08:33:03;154847.59;;;18.50;72.49
23059;BME280;30585;51.502;7.218;2022-07-29T08:35:31;154916.44;;;18.77;71.67
23059;BME280;30585;51.502;7.218;2022-07-29T08:38:02;154930.72;;;18.83;72.28
23059;BME280;30585;51.502;7.218;2022-07-29T08:40:31;154903.44;;;18.72;70.52
23059;BME280;30585;51.502;7.218;2022-07-29T08:43:03;154929.44;;;18.82;71.12
23059;BME280;30585;51.502;7.218;2022-07-29T08:45:41;154952.84;;;18.92;71.05
23059;BME280;30585;51.502;7.218;2022-07-29T08:48:20;154917.75;;;18.78;70.64
23059;BME280;30585;51.502;7.218;2022-07-29T08:50:50;154963.25;;;18.96;71.34
23059;BME280;30585;51.502;7.218;2022-07-29T08:53:24;154960.66;;;18.95;71.65
23059;BME280;30585;51.502;7.218;2022-07-29T08:55:54;154886.53;;;18.65;70.44
23059;BME280;30585;51.502;7.218;2022-07-29T08:58:23;154929.44;;;18.82;70.88
23059;BME280;30585;51.502;7.218;2022-07-29T09:00:54;154817.66;;;18.38;73.38
23059;BME280;30585;51.502;7.218;2022-07-29T09:03:29;154841.06;;;18.47;74.08
23059;BME280;30585;51.502;7.218;2022-07-29T09:05:58;154876.13;;;18.61;73.11
23059;BME280;30585;51.502;7.218;2022-07-29T09:08:27;154794.28;;;18.29;74.77
23059;BME280;30585;51.502;7.218;2022-07-29T09:10:55;154789.13;;;18.27;74.96
23059;BME280;30585;51.502;7.218;2022-07-29T09:13:24;154839.78;;;18.47;74.36
23059;BME280;30585;51.502;7.218;2022-07-29T09:15:52;154744.91;;;18.09;75.99
23059;BME280;30585;51.502;7.218;2022-07-29T09:18:38;154781.31;;;18.24;75.95
23059;BME280;30585;51.502;7.218;2022-07-29T09:21:08;154773.50;;;18.20;80.97
23059;BME280;30585;51.502;7.218;2022-07-29T09:24:05;154809.91;;;18.35;78.64
23059;BME280;30585;51.502;7.218;2022-07-29T09:26:35;154776.13;;;18.21;78.83
23059;BME280;30585;51.502;7.218;2022-07-29T09:29:11;154786.53;;;18.26;79.22
23059;BME280;30585;51.502;7.218;2022-07-29T09:31:42;154751.47;;;18.12;80.61
23059;BME280;30585;51.502;7.218;2022-07-29T09:34:13;154700.72;;;17.91;80.68
23059;BME280;30585;51.502;7.218;2022-07-29T09:36:44;154721.53;;;18.00;78.32
23059;BME280;30585;51.502;7.218;2022-07-29T09:39:14;154778.72;;;18.22;77.70
23059;BME280;30585;51.502;7.218;2022-07-29T09:41:48;154728.06;;;18.02;77.40
23059;BME280;30585;51.502;7.218;2022-07-29T09:44:16;154674.75;;;17.81;77.54
23059;BME280;30585;51.502;7.218;2022-07-29T09:46:58;154685.16;;;17.85;77.15
23059;BME280;30585;51.502;7.218;2022-07-29T09:49:34;154724.16;;;18.01;77.81
23059;BME280;30585;51.502;7.218;2022-07-29T09:52:06;154687.75;;;17.86;77.66
23059;BME280;30585;51.502;7.218;2022-07-29T09:54:35;154692.97;;;17.88;75.68
23059;BME280;30585;51.502;7.218;2022-07-29T09:57:08;154717.66;;;17.98;79.06
23059;BME280;30585;51.502;7.218;2022-07-29T09:59:39;154730.63;;;18.03;77.29
23059;BME280;30585;51.502;7.218;2022-07-29T10:02:16;154707.19;;;17.94;76.11
23059;BME280;30585;51.502;7.218;2022-07-29T10:04:50;154679.94;;;17.83;76.98
23059;BME280;30585;51.502;7.218;2022-07-29T10:07:19;154689.03;;;17.87;74.60
23059;BME280;30585;51.502;7.218;2022-07-29T10:09:52;154716.38;;;17.98;76.78
23059;BME280;30585;51.502;7.218;2022-07-29T10:12:21;154738.44;;;18.06;77.88
23059;BME280;30585;51.502;7.218;2022-07-29T10:14:50;154754.06;;;18.13;77.04
23059;BME280;30585;51.502;7.218;2022-07-29T10:17:19;154708.53;;;17.95;77.39
23059;BME280;30585;51.502;7.218;2022-07-29T10:19:48;154739.78;;;18.07;79.74
23059;BME280;30585;51.502;7.218;2022-07-29T10:22:18;154708.53;;;17.95;78.42
23059;BME280;30585;51.502;7.218;2022-07-29T10:25:08;154744.91;;;18.09;77.97
23059;BME280;30585;51.502;7.218;2022-07-29T10:27:36;154757.94;;;18.14;77.44
23059;BME280;30585;51.502;7.218;2022-07-29T10:30:06;154685.16;;;17.85;77.89
23059;BME280;30585;51.502;7.218;2022-07-29T10:32:43;154726.75;;;18.02;78.26
23059;BME280;30585;51.502;7.218;2022-07-29T10:35:31;154715.06;;;17.97;79.49
23059;BME280;30585;51.502;7.218;2022-07-29T10:38:26;154722.88;;;18.00;80.24
23059;BME280;30585;51.502;7.218;2022-07-29T10:41:05;154764.41;;;18.17;79.54
23059;BME280;30585;51.502;7.218;2022-07-29T10:44:14;154695.50;;;17.89;78.11
23059;BME280;30585;51.502;7.218;2022-07-29T10:46:45;154682.56;;;17.84;78.78
23059;BME280;30585;51.502;7.218;2022-07-29T10:49:15;154720.28;;;17.99;77.93
23059;BME280;30585;51.502;7.218;2022-07-29T10:51:54;154738.44;;;18.06;79.14
23059;BME280;30585;51.502;7.218;2022-07-29T10:54:52;154757.94;;;18.14;78.98
23059;BME280;30585;51.502;7.218;2022-07-29T10:57:26;154765.75;;;18.17;79.28
23059;BME280;30585;51.502;7.218;2022-07-29T11:00:30;154698.13;;;17.90;78.59
23059;BME280;30585;51.502;7.218;2022-07-29T11:02:59;154744.91;;;18.09;80.28
23059;BME280;30585;51.502;7.218;2022-07-29T11:05:55;154720.28;;;17.99;79.69
23059;BME280;30585;51.502;7.218;2022-07-29T11:08:25;154700.72;;;17.91;79.87
23059;BME280;30585;51.502;7.218;2022-07-29T11:14:04;154683.84;;;17.85;82.76
23059;BME280;30585;51.502;7.218;2022-07-29T11:17:00;154711.13;;;17.96;84.25
23059;BME280;30585;51.502;7.218;2022-07-29T11:19:49;154682.56;;;17.84;83.79
23059;BME280;30585;51.502;7.218;2022-07-29T11:22:32;154673.47;;;17.81;84.39
23059;BME280;30585;51.502;7.218;2022-07-29T11:25:13;154687.75;;;17.86;84.87
23059;BME280;30585;51.502;7.218;2022-07-29T11:28:11;154652.69;;;17.72;86.97
23059;BME280;30585;51.502;7.218;2022-07-29T11:30:53;154678.66;;;17.83;89.33
23059;BME280;30585;51.502;7.218;2022-07-29T11:33:30;154690.34;;;17.87;88.02
23059;BME280;30585;51.502;7.218;2022-07-29T11:36:18;154737.16;;;18.06;82.45
23059;BME280;30585;51.502;7.218;2022-07-29T11:39:25;154783.91;;;18.25;80.27
23059;BME280;30585;51.502;7.218;2022-07-29T11:45:11;154782.59;;;18.24;78.13
23059;BME280;30585;51.502;7.218;2022-07-29T11:48:03;154878.75;;;18.62;77.07
23059;BME280;30585;51.502;7.218;2022-07-29T11:50:52;154887.81;;;18.66;78.26
23059;BME280;30585;51.502;7.218;2022-07-29T11:53:24;154870.97;;;18.59;73.45
23059;BME280;30585;51.502;7.218;2022-07-29T11:55:59;154937.22;;;18.85;72.46
23059;BME280;30585;51.502;7.218;2022-07-29T11:58:29;154921.63;;;18.79;73.98
23059;BME280;30585;51.502;7.218;2022-07-29T12:00:59;154932.03;;;18.83;73.88
23059;BME280;30585;51.502;7.218;2022-07-29T12:03:32;154986.66;;;19.05;75.21
23059;BME280;30585;51.502;7.218;2022-07-29T12:06:11;154976.28;;;19.01;71.99
23059;BME280;30585;51.502;7.218;2022-07-29T12:08:44;155010.03;;;19.14;74.37
23059;BME280;30585;51.502;7.218;2022-07-29T12:11:17;155072.47;;;19.39;73.26
23059;BME280;30585;51.502;7.218;2022-07-29T12:13:47;155037.38;;;19.25;69.60
23059;BME280;30585;51.502;7.218;2022-07-29T12:16:15;155047.75;;;19.29;71.57
23059;BME280;30585;51.502;7.218;2022-07-29T12:18:57;155133.56;;;19.64;71.69
23059;BME280;30585;51.502;7.218;2022-07-29T12:21:25;155155.63;;;19.72;72.24
23059;BME280;30585;51.502;7.218;2022-07-29T12:23:55;155202.50;;;19.91;70.58
23059;BME280;30585;51.502;7.218;2022-07-29T12:26:32;155233.72;;;20.03;71.98
23059;BME280;30585;51.502;7.218;2022-07-29T12:29:01;155224.63;;;20.00;72.22
23059;BME280;30585;51.502;7.218;2022-07-29T12:31:37;155264.94;;;20.16;68.73
23059;BME280;30585;51.502;7.218;2022-07-29T12:34:13;155348.16;;;20.49;70.86
23059;BME280;30585;51.502;7.218;2022-07-29T12:36:42;155320.88;;;20.38;68.31
23059;BME280;30585;51.502;7.218;2022-07-29T12:39:10;155425.00;;;20.79;66.02
23059;BME280;30585;51.502;7.218;2022-07-29T12:41:39;155454.91;;;20.91;66.49
23059;BME280;30585;51.502;7.218;2022-07-29T12:44:07;155572.03;;;21.38;65.69
23059;BME280;30585;51.502;7.218;2022-07-29T12:46:35;155661.91;;;21.73;64.82
23059;BME280;30585;51.502;7.218;2022-07-29T12:49:05;155685.34;;;21.83;62.02
23059;BME280;30585;51.502;7.218;2022-07-29T12:51:36;155793.41;;;22.25;62.61
23059;BME280;30585;51.502;7.218;2022-07-29T12:54:09;155882.00;;;22.61;59.58
23059;BME280;30585;51.502;7.218;2022-07-29T12:56:38;155888.53;;;22.63;57.57
23059;BME280;30585;51.502;7.218;2022-07-29T12:59:14;155867.72;;;22.55;57.78
23059;BME280;30585;51.502;7.218;2022-07-29T13:01:43;155932.81;;;22.81;57.99
23059;BME280;30585;51.502;7.218;2022-07-29T13:04:24;155996.66;;;23.06;55.60
23059;BME280;30585;51.502;7.218;2022-07-29T13:07:00;155973.22;;;22.97;57.12
23059;BME280;30585;51.502;7.218;2022-07-29T13:09:37;156038.38;;;23.23;56.80
23059;BME280;30585;51.502;7.218;2022-07-29T13:12:07;155947.16;;;22.86;55.37
23059;BME280;30585;51.502;7.218;2022-07-29T13:14:38;155908.03;;;22.71;56.68
23059;BME280;30585;51.502;7.218;2022-07-29T13:17:07;155908.03;;;22.71;57.16
23059;BME280;30585;51.502;7.218;2022-07-29T13:19:37;155904.16;;;22.69;55.73
23059;BME280;30585;51.502;7.218;2022-07-29T13:22:09;155925.00;;;22.78;56.13